sensor_id;sensor_type;location;lat;lon;timestamp;temperature;humidity
2729;DHT22;1372;47.956;7.830;2022-12-20T00:00:15;4.10;99.90
2729;DHT22;1372;47.956;7.830;2022-12-20T00:02:44;4.10;99.90
2729;DHT22;1372;47.956;7.830;2022-12-20T00:05:13;4.10;99.90
2729;DHT22;1372;47.956;7.830;2022-12-20T00:07:42;4.10;99.90
2729;DHT22;1372;47.956;7.830;2022-12-20T00:10:12;4.20;99.90
2729;DHT22;1372;47.956;7.830;2022-12-20T00:12:41;4.10;99.90
2729;DHT22;1372;47.956;7.830;2022-12-20T00:15:10;4.10;99.90
2729;DHT22;1372;47.956;7.830;2022-12-20T00:17:42;4.10;99.90
2729;DHT22;1372;47.956;7.830;2022-12-20T00:20:11;4.10;99.90
2729;DHT22;1372;47.956;7.830;2022-12-20T00:22:43;4.10;99.90
2729;DHT22;1372;47.956;7.830;2022-12-20T00:25:11;4.10;99.90
2729;DHT22;1372;47.956;7.830;2022-12-20T00:27:40;4.10;99.90
2729;DHT22;1372;47.956;7.830;2022-12-20T00:30:09;4.10;99.90
2729;DHT22;1372;47.956;7.830;2022-12-20T00:32:38;4.00;99.90
2729;DHT22;1372;47.956;7.830;2022-12-20T00:35:09;4.00;99.90
2729;DHT22;1372;47.956;7.830;2022-12-20T00:37:39;4.00;99.90
2729;DHT22;1372;47.956;7.830;2022-12-20T00:40:08;4.00;99.90
2729;DHT22;1372;47.956;7.830;2022-12-20T00:42:37;4.00;99.90
2729;DHT22;1372;47.956;7.830;2022-12-20T00:45:07;4.10;99.90
2729;DHT22;1372;47.956;7.830;2022-12-20T00:47:36;4.10;99.90
2729;DHT22;1372;47.956;7.830;2022-12-20T00:50:05;4.10;99.90
2729;DHT22;1372;47.956;7.830;2022-12-20T00:52:36;4.20;99.90
2729;DHT22;1372;47.956;7.830;2022-12-20T00:55:04;4.20;99.90
2729;DHT22;1372;47.956;7.830;2022-12-20T00:57:33;4.20;99.90
2729;DHT22;1372;47.956;7.830;2022-12-20T01:00:03;4.10;99.90
2729;DHT22;1372;47.956;7.830;2022-12-20T01:02:33;4.10;99.90
2729;DHT22;1372;47.956;7.830;2022-12-20T01:05:02;4.20;99.90
2729;DHT22;1372;47.956;7.830;2022-12-20T01:07:32;4.20;99.90
2729;DHT22;1372;47.956;7.830;2022-12-20T01:10:02;4.20;99.90
2729;DHT22;1372;47.956;7.830;2022-12-20T01:12:30;4.20;99.90
2729;DHT22;1372;47.956;7.830;2022-12-20T01:14:59;4.20;99.90
2729;DHT22;1372;47.956;7.830;2022-12-20T01:17:28;4.20;99.90
2729;DHT22;1372;47.956;7.830;2022-12-20T01:19:56;4.20;99.90
2729;DHT22;1372;47.956;7.830;2022-12-20T01:22:25;4.30;99.90
2729;DHT22;1372;47.956;7.830;2022-12-20T01:24:54;4.30;99.90
2729;DHT22;1372;47.956;7.830;2022-12-20T01:27:23;4.20;99.90
2729;DHT22;1372;47.956;7.830;2022-12-20T01:29:54;4.20;99.90
2729;DHT22;1372;47.956;7.830;2022-12-20T01:32:23;4.30;99.90
2729;DHT22;1372;47.956;7.830;2022-12-20T01:34:54;4.30;99.90
2729;DHT22;1372;47.956;7.830;2022-12-20T01:37:31;4.30;99.90
2729;DHT22;1372;47.956;7.830;2022-12-20T01:40:02;4.30;99.90
2729;DHT22;1372;47.956;7.830;2022-12-20T01:42:35;4.30;99.90
2729;DHT22;1372;47.956;7.830;2022-12-20T01:45:12;4.30;99.90
2729;DHT22;1372;47.956;7.830;2022-12-20T01:47:43;4.40;99.90
2729;DHT22;1372;47.956;7.830;2022-12-20T01:50:12;4.30;99.90
2729;DHT22;1372;47.956;7.830;2022-12-20T01:52:43;4.30;99.90
2729;DHT22;1372;47.956;7.830;2022-12-20T01:55:17;4.20;99.90
2729;DHT22;1372;47.956;7.830;2022-12-20T01:57:51;4.30;99.90
2729;DHT22;1372;47.956;7.830;2022-12-20T02:00:22;4.40;99.90
2729;DHT22;1372;47.956;7.830;2022-12-20T02:02:53;4.50;99.90
2729;DHT22;1372;47.956;7.830;2022-12-20T02:05:23;4.70;99.90
2729;DHT22;1372;47.956;7.830;2022-12-20T02:07:53;4.70;99.90
2729;DHT22;1372;47.956;7.830;2022-12-20T02:10:28;4.60;99.90
2729;DHT22;1372;47.956;7.830;2022-12-20T02:13:09;4.50;99.90
2729;DHT22;1372;47.956;7.830;2022-12-20T02:15:45;4.50;99.90
2729;DHT22;1372;47.956;7.830;2022-12-20T02:18:21;4.50;99.90
2729;DHT22;1372;47.956;7.830;2022-12-20T02:21:07;4.80;99.90
2729;DHT22;1372;47.956;7.830;2022-12-20T02:23:59;4.80;99.90
2729;DHT22;1372;47.956;7.830;2022-12-20T02:27:30;4.70;99.90
2729;DHT22;1372;47.956;7.830;2022-12-20T02:30:15;4.70;99.90
2729;DHT22;1372;47.956;7.830;2022-12-20T02:32:51;4.50;99.90
2729;DHT22;1372;47.956;7.830;2022-12-20T02:35:26;4.50;99.90
2729;DHT22;1372;47.956;7.830;2022-12-20T02:37:58;4.60;99.90
2729;DHT22;1372;47.956;7.830;2022-12-20T02:40:38;4.50;99.90
2729;DHT22;1372;47.956;7.830;2022-12-20T02:43:09;4.60;99.90
2729;DHT22;1372;47.956;7.830;2022-12-20T02:46:01;4.60;99.90
2729;DHT22;1372;47.956;7.830;2022-12-20T02:48:31;4.60;99.90
2729;DHT22;1372;47.956;7.830;2022-12-20T02:51:02;4.50;99.90
2729;DHT22;1372;47.956;7.830;2022-12-20T02:53:31;4.50;99.90
2729;DHT22;1372;47.956;7.830;2022-12-20T02:56:03;4.50;99.90
2729;DHT22;1372;47.956;7.830;2022-12-20T02:58:38;4.50;99.90
2729;DHT22;1372;47.956;7.830;2022-12-20T03:01:16;4.60;99.90
2729;DHT22;1372;47.956;7.830;2022-12-20T03:03:49;4.60;99.90
2729;DHT22;1372;47.956;7.830;2022-12-20T03:06:19;4.70;99.90
2729;DHT22;1372;47.956;7.830;2022-12-20T03:08:48;4.70;99.90
2729;DHT22;1372;47.956;7.830;2022-12-20T03:11:16;4.70;99.90
2729;DHT22;1372;47.956;7.830;2022-12-20T03:13:46;4.70;99.90
2729;DHT22;1372;47.956;7.830;2022-12-20T03:16:16;4.80;99.90
2729;DHT22;1372;47.956;7.830;2022-12-20T03:18:44;4.80;99.90
2729;DHT22;1372;47.956;7.830;2022-12-20T03:21:16;4.80;99.90
2729;DHT22;1372;47.956;7.830;2022-12-20T03:23:47;4.70;99.90
2729;DHT22;1372;47.956;7.830;2022-12-20T03:26:15;4.80;99.90
2729;DHT22;1372;47.956;7.830;2022-12-20T03:28:44;4.80;99.90
2729;DHT22;1372;47.956;7.830;2022-12-20T03:31:13;4.80;99.90
2729;DHT22;1372;47.956;7.830;2022-12-20T03:33:42;4.90;99.90
2729;DHT22;1372;47.956;7.830;2022-12-20T03:36:11;4.90;99.90
2729;DHT22;1372;47.956;7.830;2022-12-20T03:38:40;4.90;99.90
2729;DHT22;1372;47.956;7.830;2022-12-20T03:41:13;4.90;99.90
2729;DHT22;1372;47.956;7.830;2022-12-20T03:43:42;4.90;99.90
2729;DHT22;1372;47.956;7.830;2022-12-20T03:46:10;4.90;99.90
2729;DHT22;1372;47.956;7.830;2022-12-20T03:48:45;4.90;99.90
2729;DHT22;1372;47.956;7.830;2022-12-20T03:51:13;4.90;99.90
2729;DHT22;1372;47.956;7.830;2022-12-20T03:53:42;4.90;99.90
2729;DHT22;1372;47.956;7.830;2022-12-20T03:56:10;4.90;99.90
2729;DHT22;1372;47.956;7.830;2022-12-20T03:58:39;4.80;99.90
2729;DHT22;1372;47.956;7.830;2022-12-20T04:01:22;4.90;99.90
2729;DHT22;1372;47.956;7.830;2022-12-20T04:03:54;4.90;99.90
2729;DHT22;1372;47.956;7.830;2022-12-20T04:06:26;4.90;99.90
2729;DHT22;1372;47.956;7.830;2022-12-20T04:08:54;4.80;99.90
2729;DHT22;1372;47.956;7.830;2022-12-20T04:11:31;4.90;99.90
2729;DHT22;1372;47.956;7.830;2022-12-20T04:13:59;5.00;99.90
2729;DHT22;1372;47.956;7.830;2022-12-20T04:16:30;4.90;99.90
2729;DHT22;1372;47.956;7.830;2022-12-20T04:19:00;4.90;99.90
2729;DHT22;1372;47.956;7.830;2022-12-20T04:21:33;4.90;99.90
2729;DHT22;1372;47.956;7.830;2022-12-20T04:24:03;5.00;99.90
2729;DHT22;1372;47.956;7.830;2022-12-20T04:26:33;5.00;99.90
2729;DHT22;1372;47.956;7.830;2022-12-20T04:29:02;5.00;99.90
2729;DHT22;1372;47.956;7.830;2022-12-20T04:31:31;5.00;99.90
2729;DHT22;1372;47.956;7.830;2022-12-20T04:34:02;5.10;99.90
2729;DHT22;1372;47.956;7.830;2022-12-20T04:36:33;5.10;99.90
2729;DHT22;1372;47.956;7.830;2022-12-20T04:39:06;5.10;99.90
2729;DHT22;1372;47.956;7.830;2022-12-20T04:41:35;5.10;99.90
2729;DHT22;1372;47.956;7.830;2022-12-20T04:44:04;5.20;99.90
2729;DHT22;1372;47.956;7.830;2022-12-20T04:46:32;5.20;99.90
2729;DHT22;1372;47.956;7.830;2022-12-20T04:49:03;5.20;99.90
2729;DHT22;1372;47.956;7.830;2022-12-20T04:51:32;5.20;99.90
2729;DHT22;1372;47.956;7.830;2022-12-20T04:54:00;5.20;99.90
2729;DHT22;1372;47.956;7.830;2022-12-20T04:56:30;5.30;99.90
2729;DHT22;1372;47.956;7.830;2022-12-20T04:58:59;5.40;99.90
2729;DHT22;1372;47.956;7.830;2022-12-20T05:01:28;5.40;99.90
2729;DHT22;1372;47.956;7.830;2022-12-20T05:03:57;5.30;99.90
2729;DHT22;1372;47.956;7.830;2022-12-20T05:06:26;5.30;99.90
2729;DHT22;1372;47.956;7.830;2022-12-20T05:08:55;5.30;99.90
2729;DHT22;1372;47.956;7.830;2022-12-20T05:11:24;5.20;99.90
2729;DHT22;1372;47.956;7.830;2022-12-20T05:13:52;5.20;99.90
2729;DHT22;1372;47.956;7.830;2022-12-20T05:16:21;5.20;99.90
2729;DHT22;1372;47.956;7.830;2022-12-20T05:18:52;5.20;99.90
2729;DHT22;1372;47.956;7.830;2022-12-20T05:21:20;5.20;99.90
2729;DHT22;1372;47.956;7.830;2022-12-20T05:24:08;5.30;99.90
2729;DHT22;1372;47.956;7.830;2022-12-20T05:27:09;5.10;99.90
2729;DHT22;1372;47.956;7.830;2022-12-20T05:29:38;5.30;99.90
2729;DHT22;1372;47.956;7.830;2022-12-20T05:32:09;5.20;99.90
2729;DHT22;1372;47.956;7.830;2022-12-20T05:34:38;5.20;99.90
2729;DHT22;1372;47.956;7.830;2022-12-20T05:37:07;5.20;99.90
2729;DHT22;1372;47.956;7.830;2022-12-20T05:39:39;5.10;99.90
2729;DHT22;1372;47.956;7.830;2022-12-20T05:42:08;5.10;99.90
2729;DHT22;1372;47.956;7.830;2022-12-20T05:44:37;5.10;99.90
2729;DHT22;1372;47.956;7.830;2022-12-20T05:47:05;5.10;99.90
2729;DHT22;1372;47.956;7.830;2022-12-20T05:49:34;5.10;99.90
2729;DHT22;1372;47.956;7.830;2022-12-20T05:52:03;5.00;99.90
2729;DHT22;1372;47.956;7.830;2022-12-20T05:54:32;5.00;99.90
2729;DHT22;1372;47.956;7.830;2022-12-20T05:57:03;5.00;99.90
2729;DHT22;1372;47.956;7.830;2022-12-20T05:59:31;5.00;99.90
2729;DHT22;1372;47.956;7.830;2022-12-20T06:02:02;5.00;99.90
2729;DHT22;1372;47.956;7.830;2022-12-20T06:04:31;5.00;99.90
2729;DHT22;1372;47.956;7.830;2022-12-20T06:07:00;5.10;99.90
2729;DHT22;1372;47.956;7.830;2022-12-20T06:09:29;5.10;99.90
2729;DHT22;1372;47.956;7.830;2022-12-20T06:11:58;5.10;99.90
2729;DHT22;1372;47.956;7.830;2022-12-20T06:14:28;5.10;99.90
2729;DHT22;1372;47.956;7.830;2022-12-20T06:16:57;5.10;99.90
2729;DHT22;1372;47.956;7.830;2022-12-20T06:19:27;5.10;99.90
2729;DHT22;1372;47.956;7.830;2022-12-20T06:21:56;5.10;99.90
2729;DHT22;1372;47.956;7.830;2022-12-20T06:24:24;5.10;99.90
2729;DHT22;1372;47.956;7.830;2022-12-20T06:26:53;5.10;99.90
2729;DHT22;1372;47.956;7.830;2022-12-20T06:29:21;5.10;99.90
2729;DHT22;1372;47.956;7.830;2022-12-20T06:31:55;5.10;99.90
2729;DHT22;1372;47.956;7.830;2022-12-20T06:34:23;5.20;99.90
2729;DHT22;1372;47.956;7.830;2022-12-20T06:36:54;5.20;99.90
2729;DHT22;1372;47.956;7.830;2022-12-20T06:39:23;5.10;99.90
2729;DHT22;1372;47.956;7.830;2022-12-20T06:41:55;5.10;99.90
2729;DHT22;1372;47.956;7.830;2022-12-20T06:44:23;5.10;99.90
2729;DHT22;1372;47.956;7.830;2022-12-20T06:46:56;5.20;99.90
2729;DHT22;1372;47.956;7.830;2022-12-20T06:49:27;5.20;99.90
2729;DHT22;1372;47.956;7.830;2022-12-20T06:51:56;5.20;99.90
2729;DHT22;1372;47.956;7.830;2022-12-20T06:54:25;5.20;99.90
2729;DHT22;1372;47.956;7.830;2022-12-20T06:56:57;5.20;99.90
2729;DHT22;1372;47.956;7.830;2022-12-20T06:59:25;5.20;99.90
2729;DHT22;1372;47.956;7.830;2022-12-20T07:01:55;5.20;99.90
2729;DHT22;1372;47.956;7.830;2022-12-20T07:04:24;5.20;99.90
2729;DHT22;1372;47.956;7.830;2022-12-20T07:06:53;5.20;99.90
2729;DHT22;1372;47.956;7.830;2022-12-20T07:09:23;5.20;99.90
2729;DHT22;1372;47.956;7.830;2022-12-20T07:11:52;5.20;99.90
2729;DHT22;1372;47.956;7.830;2022-12-20T07:14:21;5.10;99.90
2729;DHT22;1372;47.956;7.830;2022-12-20T07:16:50;5.20;99.90
2729;DHT22;1372;47.956;7.830;2022-12-20T07:19:21;5.30;99.90
2729;DHT22;1372;47.956;7.830;2022-12-20T07:21:50;5.30;99.90
2729;DHT22;1372;47.956;7.830;2022-12-20T07:24:18;5.30;99.90
2729;DHT22;1372;47.956;7.830;2022-12-20T07:26:48;5.30;99.90
2729;DHT22;1372;47.956;7.830;2022-12-20T07:29:17;5.30;99.90
2729;DHT22;1372;47.956;7.830;2022-12-20T07:31:45;5.30;99.90
2729;DHT22;1372;47.956;7.830;2022-12-20T07:34:14;5.30;99.90
2729;DHT22;1372;47.956;7.830;2022-12-20T07:36:46;5.30;99.90
2729;DHT22;1372;47.956;7.830;2022-12-20T07:39:14;5.30;99.90
2729;DHT22;1372;47.956;7.830;2022-12-20T07:41:43;5.40;99.90
2729;DHT22;1372;47.956;7.830;2022-12-20T07:44:11;5.40;99.90
2729;DHT22;1372;47.956;7.830;2022-12-20T07:46:40;5.40;99.90
2729;DHT22;1372;47.956;7.830;2022-12-20T07:49:09;5.40;99.90
2729;DHT22;1372;47.956;7.830;2022-12-20T07:51:43;5.40;99.90
2729;DHT22;1372;47.956;7.830;2022-12-20T07:54:16;5.40;99.90
2729;DHT22;1372;47.956;7.830;2022-12-20T07:56:54;5.40;99.90
2729;DHT22;1372;47.956;7.830;2022-12-20T07:59:28;5.50;99.90
2729;DHT22;1372;47.956;7.830;2022-12-20T08:02:00;5.50;99.90
2729;DHT22;1372;47.956;7.830;2022-12-20T08:04:32;5.60;99.90
2729;DHT22;1372;47.956;7.830;2022-12-20T08:07:02;5.70;99.90
2729;DHT22;1372;47.956;7.830;2022-12-20T08:09:35;5.70;99.90
2729;DHT22;1372;47.956;7.830;2022-12-20T08:12:10;5.80;99.90
2729;DHT22;1372;47.956;7.830;2022-12-20T08:14:41;5.80;99.90
2729;DHT22;1372;47.956;7.830;2022-12-20T08:17:10;5.80;99.90
2729;DHT22;1372;47.956;7.830;2022-12-20T08:19:38;5.80;99.90
2729;DHT22;1372;47.956;7.830;2022-12-20T08:22:08;5.80;99.90
2729;DHT22;1372;47.956;7.830;2022-12-20T08:24:37;5.80;99.90
2729;DHT22;1372;47.956;7.830;2022-12-20T08:27:05;5.80;99.90
2729;DHT22;1372;47.956;7.830;2022-12-20T08:29:34;5.70;99.90
2729;DHT22;1372;47.956;7.830;2022-12-20T08:32:03;5.80;99.90
2729;DHT22;1372;47.956;7.830;2022-12-20T08:34:31;5.90;99.90
2729;DHT22;1372;47.956;7.830;2022-12-20T08:37:00;5.90;99.90
2729;DHT22;1372;47.956;7.830;2022-12-20T08:39:35;6.00;99.90
2729;DHT22;1372;47.956;7.830;2022-12-20T08:42:04;6.00;99.90
2729;DHT22;1372;47.956;7.830;2022-12-20T08:44:33;6.10;99.90
2729;DHT22;1372;47.956;7.830;2022-12-20T08:47:02;6.10;99.90
2729;DHT22;1372;47.956;7.830;2022-12-20T08:49:32;6.20;99.90
2729;DHT22;1372;47.956;7.830;2022-12-20T08:52:01;6.30;99.90
2729;DHT22;1372;47.956;7.830;2022-12-20T08:54:32;6.30;99.90
2729;DHT22;1372;47.956;7.830;2022-12-20T08:57:02;6.40;99.90
2729;DHT22;1372;47.956;7.830;2022-12-20T08:59:31;6.40;99.90
2729;DHT22;1372;47.956;7.830;2022-12-20T09:01:59;6.50;99.90
2729;DHT22;1372;47.956;7.830;2022-12-20T09:04:28;6.60;99.90
2729;DHT22;1372;47.956;7.830;2022-12-20T09:06:57;6.60;99.90
2729;DHT22;1372;47.956;7.830;2022-12-20T09:09:25;6.70;99.90
2729;DHT22;1372;47.956;7.830;2022-12-20T09:11:54;6.80;99.90
2729;DHT22;1372;47.956;7.830;2022-12-20T09:14:24;6.80;99.90
2729;DHT22;1372;47.956;7.830;2022-12-20T09:16:55;6.90;99.90
2729;DHT22;1372;47.956;7.830;2022-12-20T09:19:24;6.90;99.90
2729;DHT22;1372;47.956;7.830;2022-12-20T09:21:52;6.90;99.90
2729;DHT22;1372;47.956;7.830;2022-12-20T09:24:21;7.00;99.90
2729;DHT22;1372;47.956;7.830;2022-12-20T09:26:50;7.00;99.90
2729;DHT22;1372;47.956;7.830;2022-12-20T09:29:18;7.10;99.90
2729;DHT22;1372;47.956;7.830;2022-12-20T09:31:55;7.10;99.90
2729;DHT22;1372;47.956;7.830;2022-12-20T09:34:27;7.20;99.90
2729;DHT22;1372;47.956;7.830;2022-12-20T09:36:56;7.20;99.90
2729;DHT22;1372;47.956;7.830;2022-12-20T09:39:25;7.20;99.90
2729;DHT22;1372;47.956;7.830;2022-12-20T09:41:58;7.30;99.90
2729;DHT22;1372;47.956;7.830;2022-12-20T09:44:32;7.40;99.90
2729;DHT22;1372;47.956;7.830;2022-12-20T09:47:09;7.40;99.90
2729;DHT22;1372;47.956;7.830;2022-12-20T09:49:44;7.50;99.90
2729;DHT22;1372;47.956;7.830;2022-12-20T09:52:26;7.50;99.90
2729;DHT22;1372;47.956;7.830;2022-12-20T09:55:12;7.50;99.90
2729;DHT22;1372;47.956;7.830;2022-12-20T09:58:24;7.50;99.90
2729;DHT22;1372;47.956;7.830;2022-12-20T10:01:10;7.60;99.90
2729;DHT22;1372;47.956;7.830;2022-12-20T10:03:50;7.60;99.90
2729;DHT22;1372;47.956;7.830;2022-12-20T10:06:28;7.60;99.90
2729;DHT22;1372;47.956;7.830;2022-12-20T10:09:12;7.60;99.90
2729;DHT22;1372;47.956;7.830;2022-12-20T10:12:16;7.70;99.90
2729;DHT22;1372;47.956;7.830;2022-12-20T10:15:03;7.70;99.90
2729;DHT22;1372;47.956;7.830;2022-12-20T10:17:57;7.70;99.90
2729;DHT22;1372;47.956;7.830;2022-12-20T10:20:55;7.60;99.90
2729;DHT22;1372;47.956;7.830;2022-12-20T10:23:38;7.70;99.90
2729;DHT22;1372;47.956;7.830;2022-12-20T10:26:13;7.80;99.90
2729;DHT22;1372;47.956;7.830;2022-12-20T10:28:43;7.90;99.90
2729;DHT22;1372;47.956;7.830;2022-12-20T10:31:23;7.90;99.90
2729;DHT22;1372;47.956;7.830;2022-12-20T10:33:53;8.00;99.90
2729;DHT22;1372;47.956;7.830;2022-12-20T10:36:27;8.00;99.90
2729;DHT22;1372;47.956;7.830;2022-12-20T10:39:00;8.20;99.90
2729;DHT22;1372;47.956;7.830;2022-12-20T10:41:45;8.20;99.90
2729;DHT22;1372;47.956;7.830;2022-12-20T10:44:24;8.20;99.90
2729;DHT22;1372;47.956;7.830;2022-12-20T10:47:00;8.30;99.90
2729;DHT22;1372;47.956;7.830;2022-12-20T10:49:33;8.30;99.90
2729;DHT22;1372;47.956;7.830;2022-12-20T10:52:12;8.30;99.90
2729;DHT22;1372;47.956;7.830;2022-12-20T10:54:44;8.30;99.90
2729;DHT22;1372;47.956;7.830;2022-12-20T10:57:18;8.50;99.90
2729;DHT22;1372;47.956;7.830;2022-12-20T10:59:58;8.60;99.90
2729;DHT22;1372;47.956;7.830;2022-12-20T11:02:39;8.70;99.90
2729;DHT22;1372;47.956;7.830;2022-12-20T11:05:23;8.60;99.90
2729;DHT22;1372;47.956;7.830;2022-12-20T11:07:57;8.80;99.90
2729;DHT22;1372;47.956;7.830;2022-12-20T11:11:12;9.00;99.90
2729;DHT22;1372;47.956;7.830;2022-12-20T11:14:13;9.40;99.90
2729;DHT22;1372;47.956;7.830;2022-12-20T11:16:45;9.60;99.90
2729;DHT22;1372;47.956;7.830;2022-12-20T11:19:30;9.70;99.90
2729;DHT22;1372;47.956;7.830;2022-12-20T11:22:26;9.90;99.90
2729;DHT22;1372;47.956;7.830;2022-12-20T11:25:32;10.10;99.90
2729;DHT22;1372;47.956;7.830;2022-12-20T11:28:47;10.20;99.90
2729;DHT22;1372;47.956;7.830;2022-12-20T11:31:56;10.10;99.90
2729;DHT22;1372;47.956;7.830;2022-12-20T11:34:38;10.20;99.90
2729;DHT22;1372;47.956;7.830;2022-12-20T11:37:20;10.10;99.90
2729;DHT22;1372;47.956;7.830;2022-12-20T11:40:04;10.20;99.90
2729;DHT22;1372;47.956;7.830;2022-12-20T11:42:51;10.20;99.90
2729;DHT22;1372;47.956;7.830;2022-12-20T11:45:30;10.20;99.90
2729;DHT22;1372;47.956;7.830;2022-12-20T11:48:28;10.20;99.90
2729;DHT22;1372;47.956;7.830;2022-12-20T11:51:19;10.10;99.90
2729;DHT22;1372;47.956;7.830;2022-12-20T11:53:55;10.20;99.90
2729;DHT22;1372;47.956;7.830;2022-12-20T11:56:33;10.10;99.90
2729;DHT22;1372;47.956;7.830;2022-12-20T11:59:18;10.20;99.90
2729;DHT22;1372;47.956;7.830;2022-12-20T12:01:52;10.20;99.90
2729;DHT22;1372;47.956;7.830;2022-12-20T12:04:32;10.30;99.90
2729;DHT22;1372;47.956;7.830;2022-12-20T12:07:07;10.30;99.90
2729;DHT22;1372;47.956;7.830;2022-12-20T12:09:48;10.40;99.90
2729;DHT22;1372;47.956;7.830;2022-12-20T12:12:24;10.60;99.90
2729;DHT22;1372;47.956;7.830;2022-12-20T12:15:00;10.60;99.90
2729;DHT22;1372;47.956;7.830;2022-12-20T12:17:35;10.70;99.90
2729;DHT22;1372;47.956;7.830;2022-12-20T12:20:22;10.80;99.90
2729;DHT22;1372;47.956;7.830;2022-12-20T12:22:57;10.80;99.90
2729;DHT22;1372;47.956;7.830;2022-12-20T12:25:30;11.10;99.90
2729;DHT22;1372;47.956;7.830;2022-12-20T12:27:59;11.20;99.90
2729;DHT22;1372;47.956;7.830;2022-12-20T12:30:38;11.30;99.90
2729;DHT22;1372;47.956;7.830;2022-12-20T12:33:13;11.50;99.90
2729;DHT22;1372;47.956;7.830;2022-12-20T12:36:10;11.50;99.90
2729;DHT22;1372;47.956;7.830;2022-12-20T12:39:05;11.70;99.90
2729;DHT22;1372;47.956;7.830;2022-12-20T12:42:04;11.70;99.90
2729;DHT22;1372;47.956;7.830;2022-12-20T12:44:49;11.70;99.90
2729;DHT22;1372;47.956;7.830;2022-12-20T12:47:31;11.80;99.90
2729;DHT22;1372;47.956;7.830;2022-12-20T12:50:09;11.80;99.90
2729;DHT22;1372;47.956;7.830;2022-12-20T12:52:49;11.90;99.90
2729;DHT22;1372;47.956;7.830;2022-12-20T12:55:40;12.00;99.90
2729;DHT22;1372;47.956;7.830;2022-12-20T12:58:32;12.00;99.90
2729;DHT22;1372;47.956;7.830;2022-12-20T13:01:05;11.90;99.90
2729;DHT22;1372;47.956;7.830;2022-12-20T13:04:09;11.90;99.90
2729;DHT22;1372;47.956;7.830;2022-12-20T13:06:56;11.90;99.90
2729;DHT22;1372;47.956;7.830;2022-12-20T13:09:41;11.90;99.90
2729;DHT22;1372;47.956;7.830;2022-12-20T13:15:49;11.90;99.90
2729;DHT22;1372;47.956;7.830;2022-12-20T13:18:33;12.00;99.90
2729;DHT22;1372;47.956;7.830;2022-12-20T13:21:45;12.00;99.90
2729;DHT22;1372;47.956;7.830;2022-12-20T13:24:44;12.00;99.90
2729;DHT22;1372;47.956;7.830;2022-12-20T13:27:31;11.80;99.90
2729;DHT22;1372;47.956;7.830;2022-12-20T13:36:28;11.40;99.90
2729;DHT22;1372;47.956;7.830;2022-12-20T13:39:31;11.40;99.90
2729;DHT22;1372;47.956;7.830;2022-12-20T13:42:26;11.30;99.90
2729;DHT22;1372;47.956;7.830;2022-12-20T13:45:02;11.20;99.90
2729;DHT22;1372;47.956;7.830;2022-12-20T13:47:35;11.20;99.90
2729;DHT22;1372;47.956;7.830;2022-12-20T13:50:30;11.20;99.90
2729;DHT22;1372;47.956;7.830;2022-12-20T13:53:02;11.20;99.90
2729;DHT22;1372;47.956;7.830;2022-12-20T13:55:36;11.20;99.90
2729;DHT22;1372;47.956;7.830;2022-12-20T13:58:10;11.30;99.90
2729;DHT22;1372;47.956;7.830;2022-12-20T14:00:41;11.20;99.90
2729;DHT22;1372;47.956;7.830;2022-12-20T14:03:22;11.20;99.90
2729;DHT22;1372;47.956;7.830;2022-12-20T14:05:56;11.30;99.90
2729;DHT22;1372;47.956;7.830;2022-12-20T14:08:31;11.30;99.90
2729;DHT22;1372;47.956;7.830;2022-12-20T14:11:13;11.30;99.90
2729;DHT22;1372;47.956;7.830;2022-12-20T14:13:50;11.40;99.90
2729;DHT22;1372;47.956;7.830;2022-12-20T14:16:22;11.40;99.90
2729;DHT22;1372;47.956;7.830;2022-12-20T14:18:59;11.40;99.90
2729;DHT22;1372;47.956;7.830;2022-12-20T14:21:29;11.50;99.90
2729;DHT22;1372;47.956;7.830;2022-12-20T14:23:59;11.40;99.90
2729;DHT22;1372;47.956;7.830;2022-12-20T14:26:33;11.50;99.90
2729;DHT22;1372;47.956;7.830;2022-12-20T14:29:09;11.40;99.90
2729;DHT22;1372;47.956;7.830;2022-12-20T14:31:41;11.30;99.90
2729;DHT22;1372;47.956;7.830;2022-12-20T14:34:21;11.30;99.90
2729;DHT22;1372;47.956;7.830;2022-12-20T14:37:17;11.30;99.90
2729;DHT22;1372;47.956;7.830;2022-12-20T14:39:55;11.20;99.90
2729;DHT22;1372;47.956;7.830;2022-12-20T14:42:31;11.10;99.90
2729;DHT22;1372;47.956;7.830;2022-12-20T14:45:05;11.00;99.90
2729;DHT22;1372;47.956;7.830;2022-12-20T14:47:49;10.90;99.90
2729;DHT22;1372;47.956;7.830;2022-12-20T14:50:27;10.80;99.90
2729;DHT22;1372;47.956;7.830;2022-12-20T14:52:59;10.80;99.90
2729;DHT22;1372;47.956;7.830;2022-12-20T14:55:33;10.60;99.90
2729;DHT22;1372;47.956;7.830;2022-12-20T14:58:23;10.50;99.90
2729;DHT22;1372;47.956;7.830;2022-12-20T15:00:57;10.30;99.90
2729;DHT22;1372;47.956;7.830;2022-12-20T15:03:28;10.20;99.90
2729;DHT22;1372;47.956;7.830;2022-12-20T15:05:58;10.10;99.90
2729;DHT22;1372;47.956;7.830;2022-12-20T15:08:28;10.10;99.90
2729;DHT22;1372;47.956;7.830;2022-12-20T15:11:00;10.00;99.90
2729;DHT22;1372;47.956;7.830;2022-12-20T15:13:35;9.90;99.90
2729;DHT22;1372;47.956;7.830;2022-12-20T15:16:11;9.80;99.90
2729;DHT22;1372;47.956;7.830;2022-12-20T15:18:41;9.70;99.90
2729;DHT22;1372;47.956;7.830;2022-12-20T15:21:15;9.60;99.90
2729;DHT22;1372;47.956;7.830;2022-12-20T15:23:47;9.60;99.90
2729;DHT22;1372;47.956;7.830;2022-12-20T15:26:20;9.50;99.90
2729;DHT22;1372;47.956;7.830;2022-12-20T15:28:52;9.40;99.90
2729;DHT22;1372;47.956;7.830;2022-12-20T15:31:22;9.40;99.90
2729;DHT22;1372;47.956;7.830;2022-12-20T15:33:59;9.40;99.90
2729;DHT22;1372;47.956;7.830;2022-12-20T15:36:28;9.40;99.90
2729;DHT22;1372;47.956;7.830;2022-12-20T15:38:57;9.40;99.90
2729;DHT22;1372;47.956;7.830;2022-12-20T15:41:40;9.30;99.90
2729;DHT22;1372;47.956;7.830;2022-12-20T15:44:15;9.20;99.90
2729;DHT22;1372;47.956;7.830;2022-12-20T15:46:45;9.20;99.90
2729;DHT22;1372;47.956;7.830;2022-12-20T15:49:14;9.20;99.90
2729;DHT22;1372;47.956;7.830;2022-12-20T15:51:45;9.10;99.90
2729;DHT22;1372;47.956;7.830;2022-12-20T15:54:21;9.10;99.90
2729;DHT22;1372;47.956;7.830;2022-12-20T15:56:54;9.10;99.90
2729;DHT22;1372;47.956;7.830;2022-12-20T15:59:25;9.10;99.90
2729;DHT22;1372;47.956;7.830;2022-12-20T16:02:20;9.00;99.90
2729;DHT22;1372;47.956;7.830;2022-12-20T16:04:50;9.00;99.90
2729;DHT22;1372;47.956;7.830;2022-12-20T16:07:19;9.00;99.90
2729;DHT22;1372;47.956;7.830;2022-12-20T16:09:48;8.90;99.90
2729;DHT22;1372;47.956;7.830;2022-12-20T16:12:20;8.90;99.90
2729;DHT22;1372;47.956;7.830;2022-12-20T16:14:52;8.90;99.90
2729;DHT22;1372;47.956;7.830;2022-12-20T16:17:21;8.80;99.90
2729;DHT22;1372;47.956;7.830;2022-12-20T16:19:50;8.80;99.90
2729;DHT22;1372;47.956;7.830;2022-12-20T16:22:20;8.70;99.90
2729;DHT22;1372;47.956;7.830;2022-12-20T16:24:50;8.70;99.90
2729;DHT22;1372;47.956;7.830;2022-12-20T16:27:19;8.70;99.90
2729;DHT22;1372;47.956;7.830;2022-12-20T16:29:48;8.70;99.90
2729;DHT22;1372;47.956;7.830;2022-12-20T16:32:19;8.70;99.90
2729;DHT22;1372;47.956;7.830;2022-12-20T16:34:49;8.60;99.90
2729;DHT22;1372;47.956;7.830;2022-12-20T16:37:18;8.60;99.90
2729;DHT22;1372;47.956;7.830;2022-12-20T16:39:46;8.50;99.90
2729;DHT22;1372;47.956;7.830;2022-12-20T16:42:20;8.50;99.90
2729;DHT22;1372;47.956;7.830;2022-12-20T16:44:50;8.50;99.90
2729;DHT22;1372;47.956;7.830;2022-12-20T16:47:24;8.50;99.90
2729;DHT22;1372;47.956;7.830;2022-12-20T16:49:52;8.50;99.90
2729;DHT22;1372;47.956;7.830;2022-12-20T16:52:22;8.50;99.90
2729;DHT22;1372;47.956;7.830;2022-12-20T16:54:52;8.40;99.90
2729;DHT22;1372;47.956;7.830;2022-12-20T16:57:21;8.50;99.90
2729;DHT22;1372;47.956;7.830;2022-12-20T16:59:49;8.40;99.90
2729;DHT22;1372;47.956;7.830;2022-12-20T17:02:22;8.50;99.90
2729;DHT22;1372;47.956;7.830;2022-12-20T17:04:55;8.50;99.90
2729;DHT22;1372;47.956;7.830;2022-12-20T17:07:24;8.50;99.90
2729;DHT22;1372;47.956;7.830;2022-12-20T17:09:53;8.50;99.90